sensor_id;sensor_type;location;lat;lon;timestamp;P1;durP1;ratioP1;P2;durP2;ratioP2
4434;SDS011;46552;52.150;8.428;2024-02-15T00:01:53;54.20;;;29.97;;
4434;SDS011;46552;52.150;8.428;2024-02-15T00:04:20;51.33;;;30.20;;
4434;SDS011;46552;52.150;8.428;2024-02-15T00:06:48;42.57;;;27.30;;
4434;SDS011;46552;52.150;8.428;2024-02-15T00:09:15;50.10;;;30.73;;
4434;SDS011;46552;52.150;8.428;2024-02-15T00:11:43;46.57;;;31.27;;
4434;SDS011;46552;52.150;8.428;2024-02-15T00:14:11;49.50;;;30.17;;
4434;SDS011;46552;52.150;8.428;2024-02-15T00:16:40;47.10;;;30.97;;
4434;SDS011;46552;52.150;8.428;2024-02-15T00:19:07;44.70;;;30.10;;
4434;SDS011;46552;52.150;8.428;2024-02-15T00:21:34;49.30;;;31.07;;
4434;SDS011;46552;52.150;8.428;2024-02-15T00:24:02;46.07;;;28.50;;
4434;SDS011;46552;52.150;8.428;2024-02-15T00:26:30;47.23;;;29.53;;
4434;SDS011;46552;52.150;8.428;2024-02-15T00:28:57;45.03;;;28.90;;
4434;SDS011;46552;52.150;8.428;2024-02-15T00:31:28;41.90;;;28.30;;
4434;SDS011;46552;52.150;8.428;2024-02-15T00:33:56;42.07;;;27.57;;
4434;SDS011;46552;52.150;8.428;2024-02-15T00:36:23;39.10;;;25.67;;
4434;SDS011;46552;52.150;8.428;2024-02-15T00:38:51;40.70;;;25.07;;
4434;SDS011;46552;52.150;8.428;2024-02-15T00:41:18;36.63;;;24.67;;
4434;SDS011;46552;52.150;8.428;2024-02-15T00:43:46;39.93;;;26.80;;
4434;SDS011;46552;52.150;8.428;2024-02-15T00:46:14;38.00;;;25.53;;
4434;SDS011;46552;52.150;8.428;2024-02-15T00:48:43;41.70;;;27.57;;
4434;SDS011;46552;52.150;8.428;2024-02-15T00:51:11;40.80;;;26.57;;
4434;SDS011;46552;52.150;8.428;2024-02-15T00:53:38;45.80;;;29.60;;
4434;SDS011;46552;52.150;8.428;2024-02-15T00:56:06;44.07;;;30.17;;
4434;SDS011;46552;52.150;8.428;2024-02-15T00:58:34;48.03;;;28.73;;
4434;SDS011;46552;52.150;8.428;2024-02-15T01:01:01;47.00;;;30.23;;
4434;SDS011;46552;52.150;8.428;2024-02-15T01:03:28;53.30;;;30.80;;
4434;SDS011;46552;52.150;8.428;2024-02-15T01:05:57;46.87;;;29.77;;
4434;SDS011;46552;52.150;8.428;2024-02-15T01:08:24;54.23;;;32.40;;
4434;SDS011;46552;52.150;8.428;2024-02-15T01:10:51;47.67;;;31.50;;
4434;SDS011;46552;52.150;8.428;2024-02-15T01:13:19;56.23;;;33.80;;
4434;SDS011;46552;52.150;8.428;2024-02-15T01:15:46;51.93;;;35.27;;
4434;SDS011;46552;52.150;8.428;2024-02-15T01:18:14;48.73;;;31.53;;
4434;SDS011;46552;52.150;8.428;2024-02-15T01:20:41;50.63;;;33.00;;
4434;SDS011;46552;52.150;8.428;2024-02-15T01:23:11;51.90;;;32.77;;
4434;SDS011;46552;52.150;8.428;2024-02-15T01:25:39;46.00;;;29.53;;
4434;SDS011;46552;52.150;8.428;2024-02-15T01:28:07;48.57;;;30.50;;
4434;SDS011;46552;52.150;8.428;2024-02-15T01:30:34;46.73;;;31.03;;
4434;SDS011;46552;52.150;8.428;2024-02-15T01:33:03;47.83;;;30.67;;
4434;SDS011;46552;52.150;8.428;2024-02-15T01:35:30;53.43;;;31.70;;
4434;SDS011;46552;52.150;8.428;2024-02-15T01:37:57;48.83;;;30.13;;
4434;SDS011;46552;52.150;8.428;2024-02-15T01:40:26;47.77;;;31.30;;
4434;SDS011;46552;52.150;8.428;2024-02-15T01:42:53;50.17;;;31.00;;
4434;SDS011;46552;52.150;8.428;2024-02-15T01:45:21;51.97;;;31.47;;
4434;SDS011;46552;52.150;8.428;2024-02-15T01:47:48;52.50;;;29.40;;
4434;SDS011;46552;52.150;8.428;2024-02-15T01:50:16;48.63;;;31.97;;
4434;SDS011;46552;52.150;8.428;2024-02-15T01:52:45;52.40;;;31.87;;
4434;SDS011;46552;52.150;8.428;2024-02-15T01:55:16;45.07;;;30.17;;
4434;SDS011;46552;52.150;8.428;2024-02-15T01:57:47;50.70;;;32.50;;
4434;SDS011;46552;52.150;8.428;2024-02-15T02:00:15;52.17;;;30.97;;
4434;SDS011;46552;52.150;8.428;2024-02-15T02:02:44;50.70;;;30.70;;
4434;SDS011;46552;52.150;8.428;2024-02-15T02:05:12;46.60;;;30.10;;
4434;SDS011;46552;52.150;8.428;2024-02-15T02:07:40;51.63;;;29.73;;
4434;SDS011;46552;52.150;8.428;2024-02-15T02:10:08;48.40;;;28.23;;
4434;SDS011;46552;52.150;8.428;2024-02-15T02:12:36;41.60;;;27.53;;
4434;SDS011;46552;52.150;8.428;2024-02-15T02:15:08;46.17;;;29.87;;
4434;SDS011;46552;52.150;8.428;2024-02-15T02:17:37;43.20;;;28.33;;
4434;SDS011;46552;52.150;8.428;2024-02-15T02:20:06;46.00;;;27.67;;
4434;SDS011;46552;52.150;8.428;2024-02-15T02:22:36;42.67;;;27.23;;
4434;SDS011;46552;52.150;8.428;2024-02-15T02:25:06;45.60;;;28.73;;
4434;SDS011;46552;52.150;8.428;2024-02-15T02:27:34;41.27;;;27.23;;
4434;SDS011;46552;52.150;8.428;2024-02-15T02:30:03;42.23;;;26.90;;
4434;SDS011;46552;52.150;8.428;2024-02-15T02:32:32;43.83;;;28.53;;
4434;SDS011;46552;52.150;8.428;2024-02-15T02:35:01;41.90;;;27.47;;
4434;SDS011;46552;52.150;8.428;2024-02-15T02:37:28;43.40;;;27.13;;
4434;SDS011;46552;52.150;8.428;2024-02-15T02:39:55;39.80;;;25.80;;
4434;SDS011;46552;52.150;8.428;2024-02-15T02:42:25;43.00;;;28.33;;
4434;SDS011;46552;52.150;8.428;2024-02-15T02:44:52;41.33;;;25.80;;
4434;SDS011;46552;52.150;8.428;2024-02-15T02:47:19;42.80;;;28.53;;
4434;SDS011;46552;52.150;8.428;2024-02-15T02:49:47;37.03;;;25.77;;
4434;SDS011;46552;52.150;8.428;2024-02-15T02:52:16;34.53;;;23.23;;
4434;SDS011;46552;52.150;8.428;2024-02-15T02:54:43;36.00;;;24.47;;
4434;SDS011;46552;52.150;8.428;2024-02-15T02:57:11;37.60;;;24.50;;
4434;SDS011;46552;52.150;8.428;2024-02-15T02:59:40;37.47;;;23.60;;
4434;SDS011;46552;52.150;8.428;2024-02-15T03:02:08;39.17;;;24.00;;
4434;SDS011;46552;52.150;8.428;2024-02-15T03:04:37;36.50;;;23.70;;
4434;SDS011;46552;52.150;8.428;2024-02-15T03:07:05;36.57;;;23.40;;
4434;SDS011;46552;52.150;8.428;2024-02-15T03:09:32;39.17;;;23.60;;
4434;SDS011;46552;52.150;8.428;2024-02-15T03:11:59;39.00;;;23.50;;
4434;SDS011;46552;52.150;8.428;2024-02-15T03:14:27;44.80;;;25.63;;
4434;SDS011;46552;52.150;8.428;2024-02-15T03:16:56;44.70;;;26.00;;
4434;SDS011;46552;52.150;8.428;2024-02-15T03:19:24;39.63;;;24.87;;
4434;SDS011;46552;52.150;8.428;2024-02-15T03:21:52;42.70;;;27.43;;
4434;SDS011;46552;52.150;8.428;2024-02-15T03:24:19;40.33;;;26.03;;
4434;SDS011;46552;52.150;8.428;2024-02-15T03:26:47;43.90;;;26.77;;
4434;SDS011;46552;52.150;8.428;2024-02-15T03:29:14;36.13;;;23.73;;
4434;SDS011;46552;52.150;8.428;2024-02-15T03:31:41;46.43;;;26.50;;
4434;SDS011;46552;52.150;8.428;2024-02-15T03:34:10;42.77;;;27.80;;
4434;SDS011;46552;52.150;8.428;2024-02-15T03:36:39;41.37;;;27.20;;
4434;SDS011;46552;52.150;8.428;2024-02-15T03:39:06;50.60;;;27.57;;
4434;SDS011;46552;52.150;8.428;2024-02-15T03:41:34;50.80;;;29.43;;
4434;SDS011;46552;52.150;8.428;2024-02-15T03:44:01;51.87;;;31.40;;
4434;SDS011;46552;52.150;8.428;2024-02-15T03:46:29;52.00;;;31.10;;
4434;SDS011;46552;52.150;8.428;2024-02-15T03:48:57;62.87;;;36.37;;
4434;SDS011;46552;52.150;8.428;2024-02-15T03:51:26;60.23;;;31.80;;
4434;SDS011;46552;52.150;8.428;2024-02-15T03:53:54;63.23;;;33.63;;
4434;SDS011;46552;52.150;8.428;2024-02-15T03:56:21;62.27;;;35.90;;
4434;SDS011;46552;52.150;8.428;2024-02-15T03:58:49;80.37;;;37.17;;
4434;SDS011;46552;52.150;8.428;2024-02-15T04:01:16;62.37;;;35.13;;
4434;SDS011;46552;52.150;8.428;2024-02-15T04:03:43;64.13;;;37.57;;
4434;SDS011;46552;52.150;8.428;2024-02-15T04:06:12;74.17;;;37.83;;
4434;SDS011;46552;52.150;8.428;2024-02-15T04:08:41;74.20;;;41.10;;
4434;SDS011;46552;52.150;8.428;2024-02-15T04:11:08;73.10;;;39.50;;
4434;SDS011;46552;52.150;8.428;2024-02-15T04:13:37;66.57;;;39.97;;
4434;SDS011;46552;52.150;8.428;2024-02-15T04:16:04;67.97;;;41.33;;
4434;SDS011;46552;52.150;8.428;2024-02-15T04:18:31;76.73;;;40.90;;
4434;SDS011;46552;52.150;8.428;2024-02-15T04:20:59;77.03;;;41.77;;
4434;SDS011;46552;52.150;8.428;2024-02-15T04:23:26;75.10;;;41.10;;
4434;SDS011;46552;52.150;8.428;2024-02-15T04:25:56;71.87;;;41.23;;
4434;SDS011;46552;52.150;8.428;2024-02-15T04:28:25;79.63;;;42.57;;
4434;SDS011;46552;52.150;8.428;2024-02-15T04:30:52;78.77;;;41.97;;
4434;SDS011;46552;52.150;8.428;2024-02-15T04:33:20;83.40;;;42.90;;
4434;SDS011;46552;52.150;8.428;2024-02-15T04:35:47;86.37;;;47.13;;
4434;SDS011;46552;52.150;8.428;2024-02-15T04:38:16;92.43;;;47.00;;
4434;SDS011;46552;52.150;8.428;2024-02-15T04:40:44;92.23;;;49.53;;
4434;SDS011;46552;52.150;8.428;2024-02-15T04:43:13;89.17;;;46.23;;
4434;SDS011;46552;52.150;8.428;2024-02-15T04:45:40;105.57;;;45.67;;
4434;SDS011;46552;52.150;8.428;2024-02-15T04:48:08;88.53;;;47.87;;
4434;SDS011;46552;52.150;8.428;2024-02-15T04:50:40;82.60;;;46.87;;
4434;SDS011;46552;52.150;8.428;2024-02-15T04:53:08;83.57;;;44.40;;
4434;SDS011;46552;52.150;8.428;2024-02-15T04:55:36;95.23;;;48.33;;
4434;SDS011;46552;52.150;8.428;2024-02-15T04:58:03;96.80;;;47.10;;
4434;SDS011;46552;52.150;8.428;2024-02-15T05:00:32;87.67;;;48.10;;
4434;SDS011;46552;52.150;8.428;2024-02-15T05:02:59;93.73;;;44.70;;
4434;SDS011;46552;52.150;8.428;2024-02-15T05:05:26;98.53;;;46.80;;
4434;SDS011;46552;52.150;8.428;2024-02-15T05:07:54;99.00;;;47.40;;
4434;SDS011;46552;52.150;8.428;2024-02-15T05:10:22;86.47;;;45.97;;
4434;SDS011;46552;52.150;8.428;2024-02-15T05:12:50;88.60;;;47.50;;
4434;SDS011;46552;52.150;8.428;2024-02-15T05:15:19;94.40;;;45.93;;
4434;SDS011;46552;52.150;8.428;2024-02-15T05:17:52;95.00;;;45.67;;
4434;SDS011;46552;52.150;8.428;2024-02-15T05:20:19;90.97;;;44.57;;
4434;SDS011;46552;52.150;8.428;2024-02-15T05:22:46;87.73;;;40.90;;
4434;SDS011;46552;52.150;8.428;2024-02-15T05:25:13;80.77;;;42.50;;
4434;SDS011;46552;52.150;8.428;2024-02-15T05:27:41;88.57;;;43.70;;
4434;SDS011;46552;52.150;8.428;2024-02-15T05:30:09;75.70;;;40.47;;
4434;SDS011;46552;52.150;8.428;2024-02-15T05:32:38;77.00;;;37.63;;
4434;SDS011;46552;52.150;8.428;2024-02-15T05:35:10;77.30;;;38.50;;
4434;SDS011;46552;52.150;8.428;2024-02-15T05:37:38;79.37;;;38.07;;
4434;SDS011;46552;52.150;8.428;2024-02-15T05:40:05;77.63;;;36.10;;
4434;SDS011;46552;52.150;8.428;2024-02-15T05:42:40;63.97;;;33.37;;
4434;SDS011;46552;52.150;8.428;2024-02-15T05:45:29;60.93;;;33.27;;
4434;SDS011;46552;52.150;8.428;2024-02-15T05:48:02;59.73;;;34.60;;
4434;SDS011;46552;52.150;8.428;2024-02-15T05:50:35;57.40;;;31.47;;
4434;SDS011;46552;52.150;8.428;2024-02-15T05:53:02;57.67;;;30.73;;
4434;SDS011;46552;52.150;8.428;2024-02-15T05:55:30;55.20;;;28.97;;
4434;SDS011;46552;52.150;8.428;2024-02-15T05:57:59;53.73;;;27.90;;
4434;SDS011;46552;52.150;8.428;2024-02-15T06:00:26;59.20;;;29.57;;
4434;SDS011;46552;52.150;8.428;2024-02-15T06:02:55;55.97;;;28.10;;
4434;SDS011;46552;52.150;8.428;2024-02-15T06:05:23;48.23;;;27.30;;
4434;SDS011;46552;52.150;8.428;2024-02-15T06:07:51;49.80;;;26.30;;
4434;SDS011;46552;52.150;8.428;2024-02-15T06:10:19;48.97;;;26.67;;
4434;SDS011;46552;52.150;8.428;2024-02-15T06:12:46;51.00;;;26.87;;
4434;SDS011;46552;52.150;8.428;2024-02-15T06:15:13;60.73;;;25.60;;
4434;SDS011;46552;52.150;8.428;2024-02-15T06:17:41;42.53;;;24.70;;
4434;SDS011;46552;52.150;8.428;2024-02-15T06:20:11;33.20;;;20.40;;
4434;SDS011;46552;52.150;8.428;2024-02-15T06:22:40;35.83;;;22.93;;
4434;SDS011;46552;52.150;8.428;2024-02-15T06:25:09;36.47;;;21.60;;
4434;SDS011;46552;52.150;8.428;2024-02-15T06:27:36;39.20;;;21.90;;
4434;SDS011;46552;52.150;8.428;2024-02-15T06:30:08;39.13;;;20.50;;
4434;SDS011;46552;52.150;8.428;2024-02-15T06:32:53;35.83;;;20.60;;
4434;SDS011;46552;52.150;8.428;2024-02-15T06:35:37;32.30;;;20.67;;
4434;SDS011;46552;52.150;8.428;2024-02-15T06:38:22;33.93;;;19.87;;
4434;SDS011;46552;52.150;8.428;2024-02-15T06:41:09;41.43;;;20.80;;
4434;SDS011;46552;52.150;8.428;2024-02-15T06:43:36;35.13;;;18.07;;
4434;SDS011;46552;52.150;8.428;2024-02-15T06:46:05;42.23;;;20.57;;
4434;SDS011;46552;52.150;8.428;2024-02-15T06:48:33;28.67;;;19.37;;
4434;SDS011;46552;52.150;8.428;2024-02-15T06:51:01;34.30;;;17.57;;
4434;SDS011;46552;52.150;8.428;2024-02-15T06:53:29;26.90;;;14.30;;
4434;SDS011;46552;52.150;8.428;2024-02-15T06:55:56;33.13;;;16.27;;
4434;SDS011;46552;52.150;8.428;2024-02-15T06:58:25;27.90;;;15.30;;
4434;SDS011;46552;52.150;8.428;2024-02-15T07:00:52;36.23;;;16.30;;
4434;SDS011;46552;52.150;8.428;2024-02-15T07:03:20;22.40;;;14.37;;
4434;SDS011;46552;52.150;8.428;2024-02-15T07:05:48;24.30;;;15.10;;
4434;SDS011;46552;52.150;8.428;2024-02-15T07:08:16;27.40;;;15.60;;
4434;SDS011;46552;52.150;8.428;2024-02-15T07:10:43;31.13;;;15.40;;
4434;SDS011;46552;52.150;8.428;2024-02-15T07:13:10;29.83;;;14.90;;
4434;SDS011;46552;52.150;8.428;2024-02-15T07:15:39;25.43;;;15.47;;
4434;SDS011;46552;52.150;8.428;2024-02-15T07:18:06;27.30;;;14.90;;
4434;SDS011;46552;52.150;8.428;2024-02-15T07:20:33;24.43;;;15.50;;
4434;SDS011;46552;52.150;8.428;2024-02-15T07:23:00;23.30;;;14.07;;
4434;SDS011;46552;52.150;8.428;2024-02-15T07:25:28;21.77;;;14.37;;
4434;SDS011;46552;52.150;8.428;2024-02-15T07:27:56;28.53;;;14.03;;
4434;SDS011;46552;52.150;8.428;2024-02-15T07:30:24;23.40;;;12.67;;
4434;SDS011;46552;52.150;8.428;2024-02-15T07:32:53;31.70;;;12.97;;
4434;SDS011;46552;52.150;8.428;2024-02-15T07:35:20;23.37;;;13.63;;
4434;SDS011;46552;52.150;8.428;2024-02-15T07:37:53;25.33;;;14.17;;
4434;SDS011;46552;52.150;8.428;2024-02-15T07:40:23;24.27;;;13.77;;
4434;SDS011;46552;52.150;8.428;2024-02-15T07:42:54;29.50;;;14.13;;
4434;SDS011;46552;52.150;8.428;2024-02-15T07:45:24;25.20;;;12.90;;
4434;SDS011;46552;52.150;8.428;2024-02-15T07:47:53;17.90;;;9.77;;
4434;SDS011;46552;52.150;8.428;2024-02-15T07:50:20;23.70;;;11.70;;
4434;SDS011;46552;52.150;8.428;2024-02-15T07:52:48;25.93;;;11.30;;
4434;SDS011;46552;52.150;8.428;2024-02-15T07:55:16;16.80;;;10.70;;
4434;SDS011;46552;52.150;8.428;2024-02-15T07:57:43;18.27;;;10.17;;
4434;SDS011;46552;52.150;8.428;2024-02-15T08:00:12;19.27;;;10.73;;
4434;SDS011;46552;52.150;8.428;2024-02-15T08:02:41;18.90;;;9.13;;
4434;SDS011;46552;52.150;8.428;2024-02-15T08:05:11;15.57;;;8.17;;
4434;SDS011;46552;52.150;8.428;2024-02-15T08:07:41;14.80;;;7.97;;
4434;SDS011;46552;52.150;8.428;2024-02-15T08:10:12;16.77;;;8.30;;
4434;SDS011;46552;52.150;8.428;2024-02-15T08:12:40;17.33;;;7.50;;
4434;SDS011;46552;52.150;8.428;2024-02-15T08:15:08;20.33;;;8.30;;
4434;SDS011;46552;52.150;8.428;2024-02-15T08:17:37;16.30;;;7.83;;
4434;SDS011;46552;52.150;8.428;2024-02-15T08:20:06;21.23;;;7.70;;
4434;SDS011;46552;52.150;8.428;2024-02-15T08:22:36;25.13;;;8.77;;
4434;SDS011;46552;52.150;8.428;2024-02-15T08:25:05;11.63;;;7.70;;
4434;SDS011;46552;52.150;8.428;2024-02-15T08:27:35;16.57;;;7.13;;
4434;SDS011;46552;52.150;8.428;2024-02-15T08:30:07;21.13;;;7.63;;
4434;SDS011;46552;52.150;8.428;2024-02-15T08:32:36;15.03;;;7.73;;
4434;SDS011;46552;52.150;8.428;2024-02-15T08:35:05;20.93;;;8.87;;
4434;SDS011;46552;52.150;8.428;2024-02-15T08:37:33;15.67;;;7.00;;
4434;SDS011;46552;52.150;8.428;2024-02-15T08:40:03;18.37;;;7.47;;
4434;SDS011;46552;52.150;8.428;2024-02-15T08:42:35;9.90;;;6.50;;
4434;SDS011;46552;52.150;8.428;2024-02-15T08:45:05;12.23;;;6.37;;
4434;SDS011;46552;52.150;8.428;2024-02-15T08:47:34;14.07;;;6.20;;
4434;SDS011;46552;52.150;8.428;2024-02-15T08:50:03;13.30;;;6.73;;
4434;SDS011;46552;52.150;8.428;2024-02-15T08:52:31;17.73;;;6.87;;
4434;SDS011;46552;52.150;8.428;2024-02-15T08:54:59;15.03;;;5.10;;
4434;SDS011;46552;52.150;8.428;2024-02-15T08:57:27;14.03;;;6.10;;
4434;SDS011;46552;52.150;8.428;2024-02-15T08:59:54;11.37;;;6.30;;
4434;SDS011;46552;52.150;8.428;2024-02-15T09:02:21;12.80;;;6.60;;
4434;SDS011;46552;52.150;8.428;2024-02-15T09:04:49;19.23;;;6.70;;
4434;SDS011;46552;52.150;8.428;2024-02-15T09:07:16;16.37;;;5.93;;
4434;SDS011;46552;52.150;8.428;2024-02-15T09:09:44;11.83;;;5.67;;
4434;SDS011;46552;52.150;8.428;2024-02-15T09:12:13;11.07;;;6.30;;
4434;SDS011;46552;52.150;8.428;2024-02-15T09:14:40;11.40;;;6.97;;
4434;SDS011;46552;52.150;8.428;2024-02-15T09:17:07;11.27;;;6.30;;
4434;SDS011;46552;52.150;8.428;2024-02-15T09:19:35;11.83;;;5.80;;
4434;SDS011;46552;52.150;8.428;2024-02-15T09:22:03;13.73;;;7.00;;
4434;SDS011;46552;52.150;8.428;2024-02-15T09:24:31;13.43;;;6.43;;
4434;SDS011;46552;52.150;8.428;2024-02-15T09:26:59;13.23;;;6.00;;
4434;SDS011;46552;52.150;8.428;2024-02-15T09:29:28;15.70;;;6.57;;
4434;SDS011;46552;52.150;8.428;2024-02-15T09:31:57;14.43;;;6.50;;
4434;SDS011;46552;52.150;8.428;2024-02-15T09:34:27;11.07;;;6.33;;
4434;SDS011;46552;52.150;8.428;2024-02-15T09:36:54;17.40;;;5.73;;
4434;SDS011;46552;52.150;8.428;2024-02-15T09:39:22;16.43;;;6.23;;
4434;SDS011;46552;52.150;8.428;2024-02-15T09:41:49;14.43;;;6.33;;
4434;SDS011;46552;52.150;8.428;2024-02-15T09:44:23;13.57;;;5.40;;
4434;SDS011;46552;52.150;8.428;2024-02-15T09:46:59;14.77;;;6.20;;
4434;SDS011;46552;52.150;8.428;2024-02-15T09:49:32;8.80;;;5.20;;
4434;SDS011;46552;52.150;8.428;2024-02-15T09:52:04;12.63;;;4.67;;
4434;SDS011;46552;52.150;8.428;2024-02-15T09:54:37;11.23;;;5.90;;
4434;SDS011;46552;52.150;8.428;2024-02-15T09:57:08;7.40;;;5.53;;
4434;SDS011;46552;52.150;8.428;2024-02-15T09:59:36;12.90;;;6.10;;
4434;SDS011;46552;52.150;8.428;2024-02-15T10:02:06;21.00;;;6.60;;
4434;SDS011;46552;52.150;8.428;2024-02-15T10:04:36;16.60;;;6.07;;
4434;SDS011;46552;52.150;8.428;2024-02-15T10:07:04;15.63;;;5.83;;
4434;SDS011;46552;52.150;8.428;2024-02-15T10:09:33;13.17;;;5.63;;
4434;SDS011;46552;52.150;8.428;2024-02-15T10:12:02;13.20;;;5.33;;
4434;SDS011;46552;52.150;8.428;2024-02-15T10:14:32;10.70;;;5.00;;
4434;SDS011;46552;52.150;8.428;2024-02-15T10:17:05;14.10;;;6.03;;
4434;SDS011;46552;52.150;8.428;2024-02-15T10:19:36;16.03;;;5.93;;
4434;SDS011;46552;52.150;8.428;2024-02-15T10:22:06;14.10;;;5.33;;
4434;SDS011;46552;52.150;8.428;2024-02-15T10:24:35;15.87;;;5.27;;
4434;SDS011;46552;52.150;8.428;2024-02-15T10:27:05;11.30;;;5.20;;
4434;SDS011;46552;52.150;8.428;2024-02-15T10:29:32;11.97;;;5.50;;
4434;SDS011;46552;52.150;8.428;2024-02-15T10:32:01;12.17;;;5.07;;
4434;SDS011;46552;52.150;8.428;2024-02-15T10:34:36;21.97;;;6.90;;
4434;SDS011;46552;52.150;8.428;2024-02-15T10:37:11;12.63;;;5.87;;
4434;SDS011;46552;52.150;8.428;2024-02-15T10:39:41;15.87;;;5.80;;
4434;SDS011;46552;52.150;8.428;2024-02-15T10:42:09;12.80;;;5.67;;
4434;SDS011;46552;52.150;8.428;2024-02-15T10:44:37;14.40;;;4.97;;
4434;SDS011;46552;52.150;8.428;2024-02-15T10:47:05;14.60;;;5.83;;
4434;SDS011;46552;52.150;8.428;2024-02-15T10:49:34;8.53;;;4.87;;
4434;SDS011;46552;52.150;8.428;2024-02-15T10:52:03;10.47;;;5.63;;
4434;SDS011;46552;52.150;8.428;2024-02-15T10:54:40;28.93;;;5.77;;
4434;SDS011;46552;52.150;8.428;2024-02-15T10:57:10;19.03;;;5.03;;
4434;SDS011;46552;52.150;8.428;2024-02-15T10:59:40;11.47;;;5.00;;
4434;SDS011;46552;52.150;8.428;2024-02-15T11:02:20;8.77;;;4.77;;
4434;SDS011;46552;52.150;8.428;2024-02-15T11:05:01;13.70;;;4.57;;
4434;SDS011;46552;52.150;8.428;2024-02-15T11:07:34;8.43;;;5.13;;
4434;SDS011;46552;52.150;8.428;2024-02-15T11:10:01;11.60;;;4.50;;
4434;SDS011;46552;52.150;8.428;2024-02-15T11:12:31;10.50;;;4.97;;
4434;SDS011;46552;52.150;8.428;2024-02-15T11:14:59;10.17;;;4.77;;
4434;SDS011;46552;52.150;8.428;2024-02-15T11:17:45;6.13;;;4.60;;
4434;SDS011;46552;52.150;8.428;2024-02-15T11:23:25;7.03;;;3.93;;
4434;SDS011;46552;52.150;8.428;2024-02-15T11:25:53;8.37;;;4.37;;
4434;SDS011;46552;52.150;8.428;2024-02-15T11:28:39;18.53;;;5.40;;
4434;SDS011;46552;52.150;8.428;2024-02-15T11:46:20;10.80;;;3.83;;
4434;SDS011;46552;52.150;8.428;2024-02-15T11:48:49;11.40;;;3.90;;
4434;SDS011;46552;52.150;8.428;2024-02-15T11:51:28;11.50;;;4.17;;
4434;SDS011;46552;52.150;8.428;2024-02-15T11:54:08;7.47;;;3.70;;
4434;SDS011;46552;52.150;8.428;2024-02-15T11:56:55;9.40;;;3.73;;
4434;SDS011;46552;52.150;8.428;2024-02-15T11:59:38;9.10;;;3.80;;
4434;SDS011;46552;52.150;8.428;2024-02-15T12:02:18;10.60;;;4.17;;
4434;SDS011;46552;52.150;8.428;2024-02-15T12:05:04;7.87;;;3.67;;
4434;SDS011;46552;52.150;8.428;2024-02-15T12:07:49;6.67;;;4.00;;
4434;SDS011;46552;52.150;8.428;2024-02-15T12:10:34;7.00;;;3.87;;
4434;SDS011;46552;52.150;8.428;2024-02-15T12:13:20;8.07;;;4.03;;
4434;SDS011;46552;52.150;8.428;2024-02-15T12:16:04;10.77;;;3.43;;
4434;SDS011;46552;52.150;8.428;2024-02-15T12:18:48;8.27;;;3.70;;
4434;SDS011;46552;52.150;8.428;2024-02-15T12:21:19;10.47;;;3.30;;
4434;SDS011;46552;52.150;8.428;2024-02-15T12:23:51;9.17;;;3.70;;
4434;SDS011;46552;52.150;8.428;2024-02-15T12:26:19;9.70;;;3.77;;
4434;SDS011;46552;52.150;8.428;2024-02-15T12:28:51;6.87;;;3.20;;
4434;SDS011;46552;52.150;8.428;2024-02-15T12:31:21;8.33;;;3.63;;
4434;SDS011;46552;52.150;8.428;2024-02-15T12:34:00;9.77;;;3.30;;
4434;SDS011;46552;52.150;8.428;2024-02-15T12:36:32;14.00;;;4.33;;
4434;SDS011;46552;52.150;8.428;2024-02-15T12:39:02;7.53;;;3.43;;
4434;SDS011;46552;52.150;8.428;2024-02-15T12:41:36;7.10;;;3.33;;
4434;SDS011;46552;52.150;8.428;2024-02-15T12:44:08;17.30;;;7.63;;
4434;SDS011;46552;52.150;8.428;2024-02-15T12:46:35;9.37;;;3.20;;
4434;SDS011;46552;52.150;8.428;2024-02-15T12:49:07;8.13;;;2.63;;
4434;SDS011;46552;52.150;8.428;2024-02-15T12:51:50;14.07;;;3.13;;
4434;SDS011;46552;52.150;8.428;2024-02-15T12:54:19;9.63;;;2.93;;
4434;SDS011;46552;52.150;8.428;2024-02-15T12:56:47;7.90;;;2.90;;
4434;SDS011;46552;52.150;8.428;2024-02-15T12:59:18;7.17;;;3.17;;
4434;SDS011;46552;52.150;8.428;2024-02-15T13:01:46;8.33;;;3.20;;
4434;SDS011;46552;52.150;8.428;2024-02-15T13:04:21;9.47;;;3.30;;
4434;SDS011;46552;52.150;8.428;2024-02-15T13:06:49;8.83;;;3.20;;
4434;SDS011;46552;52.150;8.428;2024-02-15T13:09:16;13.40;;;2.90;;
4434;SDS011;46552;52.150;8.428;2024-02-15T13:11:47;5.47;;;2.20;;
4434;SDS011;46552;52.150;8.428;2024-02-15T13:14:15;9.10;;;3.00;;
4434;SDS011;46552;52.150;8.428;2024-02-15T13:16:46;7.20;;;2.50;;
4434;SDS011;46552;52.150;8.428;2024-02-15T13:19:14;8.17;;;1.77;;
4434;SDS011;46552;52.150;8.428;2024-02-15T13:21:41;10.73;;;3.50;;
4434;SDS011;46552;52.150;8.428;2024-02-15T13:24:08;5.67;;;2.60;;
4434;SDS011;46552;52.150;8.428;2024-02-15T13:26:36;9.87;;;3.40;;
4434;SDS011;46552;52.150;8.428;2024-02-15T13:29:05;10.67;;;5.20;;
4434;SDS011;46552;52.150;8.428;2024-02-15T13:31:33;8.30;;;3.50;;
4434;SDS011;46552;52.150;8.428;2024-02-15T13:34:02;9.60;;;2.83;;
4434;SDS011;46552;52.150;8.428;2024-02-15T13:36:29;8.13;;;3.10;;
4434;SDS011;46552;52.150;8.428;2024-02-15T13:38:56;8.27;;;3.17;;
4434;SDS011;46552;52.150;8.428;2024-02-15T13:41:23;8.93;;;4.20;;
4434;SDS011;46552;52.150;8.428;2024-02-15T13:43:51;9.63;;;3.77;;
4434;SDS011;46552;52.150;8.428;2024-02-15T13:46:20;8.13;;;3.20;;
4434;SDS011;46552;52.150;8.428;2024-02-15T13:48:47;11.13;;;4.00;;
4434;SDS011;46552;52.150;8.428;2024-02-15T13:51:15;8.70;;;4.53;;
4434;SDS011;46552;52.150;8.428;2024-02-15T13:53:43;9.90;;;3.13;;
4434;SDS011;46552;52.150;8.428;2024-02-15T13:56:12;9.43;;;3.00;;
4434;SDS011;46552;52.150;8.428;2024-02-15T13:58:41;12.00;;;2.90;;
4434;SDS011;46552;52.150;8.428;2024-02-15T14:01:08;6.37;;;2.83;;
4434;SDS011;46552;52.150;8.428;2024-02-15T14:03:39;8.90;;;3.70;;
4434;SDS011;46552;52.150;8.428;2024-02-15T14:06:06;9.80;;;3.77;;
4434;SDS011;46552;52.150;8.428;2024-02-15T14:08:35;9.17;;;2.90;;
4434;SDS011;46552;52.150;8.428;2024-02-15T14:11:02;6.63;;;2.90;;
4434;SDS011;46552;52.150;8.428;2024-02-15T14:13:30;6.33;;;2.93;;
4434;SDS011;46552;52.150;8.428;2024-02-15T14:15:58;9.60;;;2.90;;
4434;SDS011;46552;52.150;8.428;2024-02-15T14:18:25;6.87;;;3.00;;
4434;SDS011;46552;52.150;8.428;2024-02-15T14:20:53;7.10;;;2.80;;
4434;SDS011;46552;52.150;8.428;2024-02-15T14:23:20;6.60;;;2.80;;
4434;SDS011;46552;52.150;8.428;2024-02-15T14:25:51;8.80;;;2.50;;
4434;SDS011;46552;52.150;8.428;2024-02-15T14:28:19;17.90;;;3.77;;
4434;SDS011;46552;52.150;8.428;2024-02-15T14:30:46;5.30;;;2.40;;
4434;SDS011;46552;52.150;8.428;2024-02-15T14:33:30;9.40;;;2.90;;
4434;SDS011;46552;52.150;8.428;2024-02-15T14:35:58;14.23;;;5.47;;
4434;SDS011;46552;52.150;8.428;2024-02-15T14:38:25;10.80;;;6.47;;
4434;SDS011;46552;52.150;8.428;2024-02-15T14:40:54;7.90;;;4.17;;
4434;SDS011;46552;52.150;8.428;2024-02-15T14:43:23;16.37;;;3.37;;
4434;SDS011;46552;52.150;8.428;2024-02-15T14:45:50;6.50;;;2.40;;
4434;SDS011;46552;52.150;8.428;2024-02-15T14:48:18;10.50;;;3.03;;
4434;SDS011;46552;52.150;8.428;2024-02-15T14:50:45;8.33;;;2.60;;
4434;SDS011;46552;52.150;8.428;2024-02-15T14:53:15;9.33;;;2.70;;
4434;SDS011;46552;52.150;8.428;2024-02-15T14:55:43;10.37;;;2.87;;
4434;SDS011;46552;52.150;8.428;2024-02-15T14:58:13;8.30;;;2.53;;
4434;SDS011;46552;52.150;8.428;2024-02-15T15:00:41;7.63;;;2.87;;
4434;SDS011;46552;52.150;8.428;2024-02-15T15:03:10;8.13;;;2.80;;
4434;SDS011;46552;52.150;8.428;2024-02-15T15:05:38;7.00;;;2.73;;
4434;SDS011;46552;52.150;8.428;2024-02-15T15:08:22;6.43;;;2.60;;
4434;SDS011;46552;52.150;8.428;2024-02-15T15:11:08;6.13;;;2.30;;
4434;SDS011;46552;52.150;8.428;2024-02-15T15:13:54;14.80;;;3.27;;
4434;SDS011;46552;52.150;8.428;2024-02-15T15:16:21;11.07;;;2.47;;